createdAt,value
2022-07-28T00:00:01.393Z,10.71
2022-07-28T00:02:28.786Z,10.71
2022-07-28T00:04:56.234Z,10.63
2022-07-28T00:07:22.838Z,10.66
2022-07-28T00:09:49.718Z,10.74
2022-07-28T00:12:16.731Z,10.77
2022-07-28T00:14:43.474Z,10.76
2022-07-28T00:17:10.308Z,10.76
2022-07-28T00:19:37.017Z,10.76
2022-07-28T00:22:04.141Z,10.77
2022-07-28T00:24:31.724Z,10.79
2022-07-28T00:26:58.397Z,10.79
2022-07-28T00:29:24.931Z,10.71
2022-07-28T00:32:11.450Z,10.54
2022-07-28T00:34:38.491Z,10.57
2022-07-28T00:37:07.295Z,10.61
2022-07-28T00:39:40.015Z,10.69
2022-07-28T00:42:06.771Z,10.63
2022-07-28T00:44:33.270Z,10.54
2022-07-28T00:46:59.871Z,10.53
2022-07-28T00:49:26.746Z,10.54
2022-07-28T00:51:53.814Z,10.47
2022-07-28T00:54:20.444Z,10.38
2022-07-28T00:56:46.955Z,10.21
2022-07-28T00:59:13.528Z,10.15
2022-07-28T01:01:40.256Z,10.19
2022-07-28T01:04:07.208Z,10.24
2022-07-28T01:07:16.494Z,10.17
2022-07-28T01:09:58.227Z,9.93
2022-07-28T01:12:55.562Z,9.91
2022-07-28T01:15:40.749Z,9.92
2022-07-28T01:18:14.871Z,10.02
2022-07-28T01:20:52.593Z,10.08
2022-07-28T01:23:58.648Z,10.04
2022-07-28T01:26:31.339Z,9.98
2022-07-28T01:29:18.811Z,10.07
2022-07-28T01:31:57.085Z,10.13
2022-07-28T01:34:45.477Z,10.16
2022-07-28T01:37:19.315Z,10.11
2022-07-28T01:39:52.434Z,10.06
2022-07-28T01:42:24.083Z,9.91
2022-07-28T01:44:57.324Z,9.91
2022-07-28T01:47:27.891Z,9.90
2022-07-28T01:49:59.692Z,9.85
2022-07-28T01:52:28.997Z,9.86
2022-07-28T01:54:59.152Z,9.96
2022-07-28T01:57:29.793Z,9.95
2022-07-28T02:00:00.080Z,9.91
2022-07-28T02:02:31.008Z,9.87
2022-07-28T02:05:00.790Z,9.80
2022-07-28T02:07:29.813Z,9.59
2022-07-28T02:09:58.596Z,9.57
2022-07-28T02:12:27.956Z,9.55
2022-07-28T02:14:57.269Z,9.44
2022-07-28T02:17:33.450Z,9.39
2022-07-28T02:20:03.195Z,9.31
2022-07-28T02:22:32.474Z,9.33
2022-07-28T02:24:59.424Z,9.32
2022-07-28T02:27:40.463Z,9.28
2022-07-28T02:30:22.203Z,9.26
2022-07-28T02:32:54.980Z,9.23
2022-07-28T02:35:49.129Z,9.16
2022-07-28T02:38:30.207Z,9.22
2022-07-28T02:41:03.790Z,9.20
2022-07-28T02:43:49.477Z,9.18
2022-07-28T02:46:24.105Z,9.11
2022-07-28T02:49:06.540Z,9.21
2022-07-28T02:51:36.494Z,9.21
2022-07-28T02:54:04.615Z,9.09
2022-07-28T02:56:32.386Z,8.98
2022-07-28T02:59:00.831Z,8.95
2022-07-28T03:01:28.051Z,8.91
2022-07-28T03:03:56.609Z,8.83
2022-07-28T03:06:28.510Z,8.82
2022-07-28T03:08:56.699Z,8.79
2022-07-28T03:11:23.350Z,8.76
2022-07-28T03:13:49.947Z,8.85
2022-07-28T03:16:16.519Z,8.99
2022-07-28T03:18:43.120Z,9.02
2022-07-28T03:21:09.620Z,9.05
2022-07-28T03:23:48.179Z,9.05
2022-07-28T03:26:30.503Z,8.96
2022-07-28T03:29:00.202Z,8.94
2022-07-28T03:31:29.063Z,9.01
2022-07-28T03:33:56.771Z,9.10
2022-07-28T03:36:30.883Z,9.13
2022-07-28T03:39:11.907Z,9.17
2022-07-28T03:41:42.238Z,9.18
2022-07-28T03:44:12.335Z,9.15
2022-07-28T03:46:46.379Z,9.06
2022-07-28T03:49:13.174Z,9.10
2022-07-28T03:51:39.824Z,9.09
2022-07-28T03:54:06.450Z,8.99
2022-07-28T03:56:32.959Z,8.98
2022-07-28T03:58:59.604Z,9.03
2022-07-28T04:01:26.215Z,9.11
2022-07-28T04:03:52.816Z,9.18
2022-07-28T04:06:19.553Z,9.19
2022-07-28T04:08:46.460Z,9.23
2022-07-28T04:11:13.073Z,9.17
2022-07-28T04:13:39.624Z,9.15
2022-07-28T04:16:07.511Z,9.16
2022-07-28T04:18:34.591Z,9.22
2022-07-28T04:21:01.203Z,9.16
2022-07-28T04:23:28.000Z,9.14
2022-07-28T04:25:54.505Z,9.13
2022-07-28T04:28:21.102Z,9.15
2022-07-28T04:30:47.674Z,9.11
2022-07-28T04:33:14.285Z,9.11
2022-07-28T04:35:40.840Z,9.13
2022-07-28T04:38:07.693Z,9.13
2022-07-28T04:40:34.489Z,9.19
2022-07-28T04:43:01.403Z,9.21
2022-07-28T04:45:28.770Z,9.21
2022-07-28T04:47:55.326Z,9.24
2022-07-28T04:50:21.889Z,9.15
2022-07-28T04:52:49.784Z,9.14
2022-07-28T04:55:17.837Z,9.17
2022-07-28T04:57:44.819Z,9.23
2022-07-28T05:00:13.757Z,9.32
2022-07-28T05:02:42.332Z,9.47
2022-07-28T05:05:09.874Z,9.55
2022-07-28T05:07:38.319Z,9.63
2022-07-28T05:10:10.541Z,9.74
2022-07-28T05:12:38.098Z,9.84
2022-07-28T05:15:07.241Z,9.97
2022-07-28T05:17:34.538Z,10.07
2022-07-28T05:20:01.048Z,10.18
2022-07-28T05:22:41.051Z,10.27
2022-07-28T05:25:14.882Z,10.36
2022-07-28T05:27:41.411Z,10.48
2022-07-28T05:30:09.326Z,10.60
2022-07-28T05:32:35.864Z,10.67
2022-07-28T05:35:02.358Z,10.77
2022-07-28T05:37:29.128Z,10.88
2022-07-28T05:39:55.670Z,10.92
2022-07-28T05:42:22.259Z,10.97
2022-07-28T05:44:48.771Z,11.00
2022-07-28T05:47:15.287Z,11.10
2022-07-28T05:49:41.835Z,11.19
2022-07-28T05:52:08.347Z,11.28
2022-07-28T05:54:34.867Z,11.26
2022-07-28T05:57:01.437Z,11.28
2022-07-28T05:59:27.931Z,11.34
2022-07-28T06:01:54.517Z,11.47
2022-07-28T06:04:29.032Z,11.58
2022-07-28T06:06:56.909Z,11.65
2022-07-28T06:09:23.543Z,11.84
2022-07-28T06:11:50.682Z,11.97
2022-07-28T06:14:18.805Z,12.10
2022-07-28T06:16:50.775Z,12.28
2022-07-28T06:19:18.532Z,12.45
2022-07-28T06:21:45.155Z,12.62
2022-07-28T06:24:12.143Z,12.79
2022-07-28T06:26:44.336Z,12.91
2022-07-28T06:29:12.293Z,13.01
2022-07-28T06:31:39.134Z,13.09
2022-07-28T06:34:06.448Z,13.21
2022-07-28T06:36:33.018Z,13.25
2022-07-28T06:38:59.618Z,13.38
2022-07-28T06:41:26.158Z,13.50
2022-07-28T06:43:52.693Z,13.64
2022-07-28T06:46:19.869Z,13.78
2022-07-28T06:48:46.766Z,13.90
2022-07-28T06:51:14.964Z,13.99
2022-07-28T06:53:41.575Z,14.13
2022-07-28T06:56:10.886Z,14.26
2022-07-28T06:58:40.541Z,14.38
2022-07-28T07:01:07.809Z,14.48
2022-07-28T07:03:34.781Z,14.56
2022-07-28T07:06:01.392Z,14.62
2022-07-28T07:08:28.219Z,14.71
2022-07-28T07:10:55.138Z,14.87
2022-07-28T07:13:21.652Z,14.97
2022-07-28T07:15:48.210Z,15.04
2022-07-28T07:18:14.819Z,15.09
2022-07-28T07:20:41.660Z,15.08
2022-07-28T07:23:08.217Z,15.24
2022-07-28T07:25:34.848Z,15.26
2022-07-28T07:28:01.392Z,15.40
2022-07-28T07:30:27.940Z,15.41
2022-07-28T07:32:54.438Z,15.53
2022-07-28T07:35:21.028Z,15.59
2022-07-28T07:37:47.564Z,15.68
2022-07-28T07:40:14.211Z,15.79
2022-07-28T07:42:40.733Z,15.90
2022-07-28T07:45:07.986Z,16.07
2022-07-28T07:47:34.564Z,16.14
2022-07-28T07:50:04.211Z,16.28
2022-07-28T07:52:31.556Z,16.36
2022-07-28T07:54:58.239Z,16.48
2022-07-28T07:57:24.857Z,16.56
2022-07-28T07:59:51.462Z,16.63
2022-07-28T08:02:17.969Z,16.70
2022-07-28T08:04:44.556Z,16.72
2022-07-28T08:07:11.467Z,16.79
2022-07-28T08:09:38.610Z,16.84
2022-07-28T08:12:05.727Z,16.85
2022-07-28T08:14:32.359Z,16.87
2022-07-28T08:16:59.508Z,16.98
2022-07-28T08:19:26.814Z,17.11
2022-07-28T08:21:53.644Z,17.18
2022-07-28T08:24:33.013Z,17.19
2022-07-28T08:27:02.410Z,17.25
2022-07-28T08:29:29.211Z,17.35
2022-07-28T08:31:56.315Z,17.45
2022-07-28T08:34:31.029Z,17.54
2022-07-28T08:37:03.765Z,17.60
2022-07-28T08:39:35.447Z,17.73
2022-07-28T08:42:34.201Z,17.77
2022-07-28T08:45:07.751Z,17.77
2022-07-28T08:47:46.043Z,17.91
2022-07-28T08:50:24.433Z,17.96
2022-07-28T08:52:53.769Z,18.12
2022-07-28T08:55:31.514Z,18.20
2022-07-28T08:58:00.423Z,18.35
2022-07-28T09:00:27.780Z,18.46
2022-07-28T09:02:55.999Z,18.55
2022-07-28T09:05:24.258Z,18.59
2022-07-28T09:07:55.202Z,18.66
2022-07-28T09:10:23.381Z,18.74
2022-07-28T09:12:50.154Z,18.86
2022-07-28T09:15:16.723Z,18.96
2022-07-28T09:17:43.494Z,19.02
2022-07-28T09:20:12.197Z,19.12
2022-07-28T09:23:33.565Z,18.99
2022-07-28T09:26:12.448Z,19.05
2022-07-28T09:28:58.245Z,19.12
2022-07-28T09:31:28.404Z,19.30
2022-07-28T09:34:00.736Z,19.34
2022-07-28T09:36:30.196Z,19.45
2022-07-28T09:38:57.204Z,19.53
2022-07-28T09:41:24.616Z,19.72
2022-07-28T09:43:55.143Z,19.79
2022-07-28T09:46:25.604Z,19.86
2022-07-28T09:49:02.212Z,19.96
2022-07-28T09:51:31.451Z,20.12
2022-07-28T09:54:08.533Z,20.15
2022-07-28T09:56:35.618Z,20.22
2022-07-28T09:59:03.596Z,20.27
2022-07-28T10:01:35.218Z,20.37
2022-07-28T10:04:04.299Z,20.53
2022-07-28T10:06:33.674Z,20.52
2022-07-28T10:09:04.325Z,20.60
2022-07-28T10:11:31.652Z,20.67
2022-07-28T10:14:07.116Z,20.69
2022-07-28T10:16:36.603Z,20.72
2022-07-28T10:19:05.697Z,20.72
2022-07-28T10:21:42.102Z,20.83
2022-07-28T10:24:14.235Z,20.89
2022-07-28T10:26:45.138Z,20.98
2022-07-28T10:29:18.231Z,21.05
2022-07-28T10:32:14.079Z,21.17
2022-07-28T10:34:52.236Z,21.12
2022-07-28T10:37:23.568Z,21.07
2022-07-28T10:40:12.488Z,21.12
2022-07-28T10:42:40.821Z,21.27
2022-07-28T10:45:11.435Z,21.28
2022-07-28T10:47:38.002Z,21.35
2022-07-28T10:50:06.164Z,21.34
2022-07-28T10:52:47.358Z,21.33
2022-07-28T10:55:57.668Z,21.45
2022-07-28T10:59:21.439Z,21.60
2022-07-28T11:01:52.283Z,21.66
2022-07-28T11:04:52.108Z,21.78
2022-07-28T11:07:20.715Z,21.92
2022-07-28T11:09:48.425Z,21.91
2022-07-28T11:12:16.621Z,22.03
2022-07-28T11:14:44.729Z,22.12
2022-07-28T11:17:13.010Z,22.12
2022-07-28T11:22:33.970Z,22.34
2022-07-28T11:25:19.021Z,22.47
2022-07-28T11:27:51.206Z,22.26
2022-07-28T11:30:35.664Z,22.32
2022-07-28T11:33:09.328Z,22.46
2022-07-28T11:35:38.883Z,22.53
2022-07-28T11:38:05.833Z,22.47
2022-07-28T11:40:46.132Z,22.56
2022-07-28T11:43:22.782Z,22.65
2022-07-28T11:46:01.848Z,22.90
2022-07-28T11:48:29.927Z,23.00
2022-07-28T11:51:02.541Z,23.07
2022-07-28T11:53:51.754Z,22.97
2022-07-28T11:56:32.674Z,22.93
2022-07-28T11:59:03.658Z,22.98
2022-07-28T12:01:32.460Z,23.04
2022-07-28T12:04:12.226Z,23.04
2022-07-28T12:06:42.844Z,23.17
2022-07-28T12:09:13.285Z,23.20
2022-07-28T12:11:42.575Z,23.23
2022-07-28T12:14:16.431Z,23.30
2022-07-28T12:16:45.961Z,23.34
2022-07-28T12:19:17.043Z,23.48
2022-07-28T12:21:55.572Z,23.47
2022-07-28T12:24:45.777Z,23.54
2022-07-28T12:27:15.414Z,23.53
2022-07-28T12:29:43.711Z,23.65
2022-07-28T12:32:10.689Z,23.73
2022-07-28T12:34:40.347Z,23.77
2022-07-28T12:37:12.101Z,23.66
2022-07-28T12:39:41.866Z,23.69
2022-07-28T12:42:11.757Z,23.90
2022-07-28T12:44:41.961Z,23.90
2022-07-28T12:47:13.035Z,24.05
2022-07-28T12:49:42.778Z,24.22
2022-07-28T12:52:18.056Z,24.18
2022-07-28T12:54:53.003Z,24.19
2022-07-28T12:57:51.015Z,24.13
2022-07-28T13:00:34.638Z,24.13
2022-07-28T13:03:27.262Z,24.19
2022-07-28T13:06:02.317Z,24.28
2022-07-28T13:08:45.326Z,24.47
2022-07-28T13:11:41.867Z,24.61
2022-07-28T13:14:01.126Z,24.59
2022-07-28T13:16:29.851Z,24.58
2022-07-28T13:19:02.549Z,24.67
2022-07-28T13:21:57.102Z,24.72
2022-07-28T13:24:26.890Z,24.78
2022-07-28T13:26:53.558Z,24.86
2022-07-28T13:29:20.545Z,24.93
2022-07-28T13:31:47.226Z,25.02
2022-07-28T13:34:14.606Z,25.09
2022-07-28T13:36:41.751Z,25.07
2022-07-28T13:39:13.786Z,24.95
2022-07-28T13:41:57.784Z,24.89
2022-07-28T13:44:30.219Z,24.87
2022-07-28T13:47:00.223Z,24.99
2022-07-28T13:49:33.850Z,25.13
2022-07-28T13:52:01.597Z,25.18
2022-07-28T13:54:28.565Z,25.27
2022-07-28T13:57:11.796Z,25.30
2022-07-28T13:59:39.351Z,25.37
2022-07-28T14:02:06.269Z,25.42
2022-07-28T14:04:48.912Z,25.42
2022-07-28T14:07:21.177Z,25.40
2022-07-28T14:09:50.407Z,25.42
2022-07-28T14:12:18.055Z,25.42
2022-07-28T14:14:48.506Z,25.29
2022-07-28T14:20:10.509Z,25.27
2022-07-28T14:22:37.171Z,25.25
2022-07-28T14:25:04.221Z,25.27
2022-07-28T14:27:30.935Z,25.29
2022-07-28T14:29:57.543Z,25.32
2022-07-28T14:32:24.251Z,25.33
2022-07-28T14:34:51.176Z,25.32
2022-07-28T14:37:20.039Z,25.32
2022-07-28T14:39:46.568Z,25.33
2022-07-28T14:42:13.292Z,25.39
2022-07-28T14:44:40.324Z,25.45
2022-07-28T14:47:07.377Z,25.48
2022-07-28T14:49:35.548Z,25.51
2022-07-28T14:52:03.600Z,25.49
2022-07-28T14:54:30.348Z,25.48
2022-07-28T14:56:57.039Z,25.51
2022-07-28T14:59:23.594Z,25.44
2022-07-28T15:01:50.749Z,25.44
2022-07-28T15:04:18.479Z,25.39
2022-07-28T15:06:46.031Z,25.25
2022-07-28T15:09:14.197Z,25.27
2022-07-28T15:11:41.859Z,25.23
2022-07-28T15:14:08.430Z,25.25
2022-07-28T15:16:35.080Z,25.29
2022-07-28T15:19:02.234Z,25.31
2022-07-28T15:21:34.326Z,25.33
2022-07-28T15:24:03.988Z,25.38
2022-07-28T15:26:30.523Z,25.28
2022-07-28T15:28:57.148Z,25.25
2022-07-28T15:31:26.973Z,25.21
2022-07-28T15:33:58.353Z,25.19
2022-07-28T15:36:25.563Z,25.15
2022-07-28T15:38:53.864Z,25.10
2022-07-28T15:41:20.689Z,25.13
2022-07-28T15:43:48.085Z,25.11
2022-07-28T15:46:14.818Z,25.10
2022-07-28T15:48:44.713Z,25.11
2022-07-28T15:51:11.765Z,25.09
2022-07-28T15:53:39.476Z,25.08
2022-07-28T15:56:06.219Z,25.12
2022-07-28T15:58:32.989Z,25.18
2022-07-28T16:01:01.791Z,25.25
2022-07-28T16:03:29.818Z,25.27
2022-07-28T16:05:58.499Z,25.26
2022-07-28T16:08:25.072Z,25.22
2022-07-28T16:10:54.320Z,25.20
2022-07-28T16:13:32.177Z,25.20
2022-07-28T16:16:14.861Z,25.14
2022-07-28T16:18:44.336Z,25.11
2022-07-28T16:21:11.184Z,25.09
2022-07-28T16:23:37.961Z,25.07
2022-07-28T16:26:07.674Z,25.03
2022-07-28T16:28:35.150Z,25.00
2022-07-28T16:31:01.794Z,24.98
2022-07-28T16:33:28.344Z,24.96
2022-07-28T16:36:01.247Z,24.96
2022-07-28T16:38:27.935Z,24.91
2022-07-28T16:40:54.457Z,24.84
2022-07-28T16:43:21.272Z,24.78
2022-07-28T16:45:47.821Z,24.69
2022-07-28T16:48:14.347Z,24.64
2022-07-28T16:50:45.707Z,24.61
2022-07-28T16:53:13.744Z,24.56
2022-07-28T16:55:41.991Z,24.53
2022-07-28T16:58:08.546Z,24.49
2022-07-28T17:00:35.260Z,24.48
2022-07-28T17:03:01.783Z,24.49
2022-07-28T17:05:28.331Z,24.50
2022-07-28T17:07:54.844Z,24.46
2022-07-28T17:10:27.284Z,24.41
2022-07-28T17:12:54.601Z,24.34
2022-07-28T17:15:22.397Z,24.28
2022-07-28T17:17:50.696Z,24.25
2022-07-28T17:20:17.436Z,24.21
2022-07-28T17:22:44.679Z,24.21
2022-07-28T17:25:42.902Z,24.18
2022-07-28T17:27:58.500Z,24.08
2022-07-28T17:30:25.452Z,24.07
2022-07-28T17:32:52.904Z,24.02
2022-07-28T17:35:31.705Z,23.99
2022-07-28T17:38:04.373Z,23.92
2022-07-28T17:40:32.476Z,23.80
2022-07-28T17:42:59.035Z,23.70
2022-07-28T17:45:25.759Z,23.62
2022-07-28T17:47:52.419Z,23.53
2022-07-28T17:50:19.663Z,23.47
2022-07-28T17:52:46.518Z,23.40
2022-07-28T17:55:55.762Z,23.37
2022-07-28T17:58:32.204Z,23.25
2022-07-28T18:01:10.874Z,23.19
2022-07-28T18:03:56.533Z,23.09
2022-07-28T18:06:33.317Z,23.02
2022-07-28T18:09:08.361Z,22.96
2022-07-28T18:11:57.245Z,22.87
2022-07-28T18:14:27.267Z,22.83
2022-07-28T18:16:54.296Z,22.80
2022-07-28T18:19:21.070Z,22.74
2022-07-28T18:21:47.614Z,22.67
2022-07-28T18:24:14.555Z,22.60
2022-07-28T18:26:41.276Z,22.53
2022-07-28T18:29:07.857Z,22.48
2022-07-28T18:31:34.486Z,22.35
2022-07-28T18:34:01.515Z,22.23
2022-07-28T18:36:28.028Z,22.05
2022-07-28T18:38:54.651Z,21.81
2022-07-28T18:41:21.274Z,21.62
2022-07-28T18:43:47.862Z,21.52
2022-07-28T18:46:15.387Z,21.39
2022-07-28T18:48:42.053Z,21.25
2022-07-28T18:51:08.660Z,21.17
2022-07-28T18:53:36.115Z,21.09
2022-07-28T18:56:02.664Z,21.02
2022-07-28T18:58:29.643Z,21.05
2022-07-28T19:00:56.596Z,20.96
2022-07-28T19:03:23.143Z,20.81
2022-07-28T19:05:49.727Z,20.76
2022-07-28T19:08:17.172Z,20.72
2022-07-28T19:10:43.997Z,20.65
2022-07-28T19:13:12.829Z,20.54
2022-07-28T19:15:41.270Z,20.36
2022-07-28T19:18:10.604Z,20.26
2022-07-28T19:20:43.853Z,20.24
2022-07-28T19:23:10.399Z,20.26
2022-07-28T19:25:39.556Z,20.20
2022-07-28T19:28:07.183Z,20.15
2022-07-28T19:30:34.970Z,20.06
2022-07-28T19:33:02.603Z,19.99
2022-07-28T19:35:29.229Z,19.92
2022-07-28T19:37:59.525Z,19.87
2022-07-28T19:40:29.064Z,19.82
2022-07-28T19:42:56.659Z,19.86
2022-07-28T19:45:23.241Z,19.80
2022-07-28T19:47:50.142Z,19.83
2022-07-28T19:50:17.056Z,19.93
2022-07-28T19:52:43.706Z,20.01
2022-07-28T19:55:12.750Z,20.06
2022-07-28T19:57:45.146Z,19.99
2022-07-28T20:00:13.389Z,19.90
2022-07-28T20:02:40.351Z,19.83
2022-07-28T20:05:08.395Z,19.82
2022-07-28T20:07:35.393Z,19.75
2022-07-28T20:10:02.031Z,19.72
2022-07-28T20:12:34.242Z,19.62
2022-07-28T20:15:05.015Z,19.57
2022-07-28T20:17:38.462Z,19.49
2022-07-28T20:20:12.767Z,19.38
2022-07-28T20:22:41.141Z,19.26
2022-07-28T20:25:10.007Z,19.20
2022-07-28T20:27:40.630Z,19.16
2022-07-28T20:30:10.218Z,19.22
2022-07-28T20:32:38.129Z,19.29
2022-07-28T20:35:07.017Z,19.24
2022-07-28T20:37:35.969Z,19.21
2022-07-28T20:40:05.920Z,19.11
2022-07-28T20:42:32.462Z,19.01
2022-07-28T20:44:58.978Z,18.95
2022-07-28T20:47:25.992Z,18.94
2022-07-28T20:49:53.381Z,18.86
2022-07-28T20:52:19.873Z,18.72
2022-07-28T20:54:50.612Z,18.63
2022-07-28T20:57:20.292Z,18.64
2022-07-28T20:59:48.799Z,18.70
2022-07-28T21:02:15.378Z,18.64
2022-07-28T21:04:41.892Z,18.49
2022-07-28T21:07:10.183Z,18.39
2022-07-28T21:09:36.712Z,18.29
2022-07-28T21:12:03.702Z,18.21
2022-07-28T21:14:32.151Z,18.13
2022-07-28T21:16:58.908Z,18.05
2022-07-28T21:19:25.564Z,18.00
2022-07-28T21:21:52.520Z,17.94
2022-07-28T21:24:19.365Z,17.85
2022-07-28T21:26:46.286Z,17.80
2022-07-28T21:32:04.170Z,17.65
2022-07-28T21:34:34.512Z,17.58
2022-07-28T21:37:06.699Z,17.53
2022-07-28T21:39:34.327Z,17.47
2022-07-28T21:42:01.070Z,17.40
2022-07-28T21:44:27.591Z,17.35
2022-07-28T21:46:54.163Z,17.32
2022-07-28T21:49:21.036Z,17.29
2022-07-28T21:51:47.619Z,17.25
2022-07-28T21:54:14.438Z,17.29
2022-07-28T21:56:41.193Z,17.36
2022-07-28T21:59:07.707Z,17.35
2022-07-28T22:01:34.408Z,17.27
2022-07-28T22:04:01.039Z,17.26
2022-07-28T22:06:27.545Z,17.28
2022-07-28T22:08:54.213Z,17.20
2022-07-28T22:11:22.872Z,17.16
2022-07-28T22:13:49.510Z,17.10
2022-07-28T22:16:16.136Z,16.99
2022-07-28T22:18:42.731Z,16.87
2022-07-28T22:21:09.378Z,16.80
2022-07-28T22:23:35.912Z,16.71
2022-07-28T22:26:03.049Z,16.67
2022-07-28T22:28:30.620Z,16.66
2022-07-28T22:30:59.054Z,16.59
2022-07-28T22:33:40.134Z,16.52
2022-07-28T22:36:08.790Z,16.49
2022-07-28T22:38:36.016Z,16.47
2022-07-28T22:41:02.978Z,16.47
2022-07-28T22:43:33.176Z,16.49
2022-07-28T22:45:59.818Z,16.61
2022-07-28T22:48:26.418Z,16.67
2022-07-28T22:50:53.064Z,16.67
2022-07-28T22:53:19.629Z,16.69
2022-07-28T22:55:46.151Z,16.72
2022-07-28T22:58:12.656Z,16.79
2022-07-28T23:00:39.281Z,16.78
2022-07-28T23:03:05.920Z,16.78
2022-07-28T23:05:33.726Z,16.76
2022-07-28T23:08:00.241Z,16.77
2022-07-28T23:10:26.972Z,16.83
2022-07-28T23:12:57.228Z,16.88
2022-07-28T23:15:25.138Z,16.91
2022-07-28T23:18:13.533Z,16.98
2022-07-28T23:20:41.459Z,17.04
2022-07-28T23:23:08.787Z,16.99
2022-07-28T23:25:42.604Z,17.00
2022-07-28T23:28:09.714Z,17.02
2022-07-28T23:30:36.355Z,16.98
2022-07-28T23:33:04.907Z,16.95
2022-07-28T23:35:31.545Z,16.93
2022-07-28T23:37:58.059Z,16.93
2022-07-28T23:40:24.631Z,16.83
2022-07-28T23:42:51.138Z,16.78
2022-07-28T23:45:17.644Z,16.76
2022-07-28T23:47:44.201Z,16.70
2022-07-28T23:50:10.887Z,16.66
2022-07-28T23:52:37.412Z,16.65
2022-07-28T23:55:05.127Z,16.68
2022-07-28T23:57:31.842Z,16.72
